Time;durP1;ratioP1;P1;durP2;ratioP2;P2;SDS_P1;SDS_P2;PMS_P1;PMS_P2;Temp;Humidity;BMP_temperature;BMP_pressure;BME280_temperature;BME280_humidity;BME280_pressure;Samples;Min_cycle;Max_cycle;Signal;HPM_P1;HPM_P2
2021/01/13 00:00:28;;;;;;;;;;;;;;;;;;2056502;28;44172;-64
2021/01/13 00:01:29;;;;;;;;;;;;;;;;;;2056479;28;45230;-64
2021/01/13 00:02:30;;;;;;;;;;;;;;;;;;2056520;28;46501;-64
2021/01/13 00:03:32;;;;;;;;;;;;;;;;;;2056490;28;45862;-63
2021/01/13 00:04:33;;;;;;;;;;;;;;;;;;2055811;28;44366;-64
2021/01/13 00:05:36;;;;;;;;;;;;;;;;;;2055684;28;45875;-64
2021/01/13 00:06:37;;;;;;;;;;;;;;;;;;2056383;28;44528;-64
2021/01/13 00:07:38;;;;;;;;;;;;;;;;;;2055641;28;44669;-65
2021/01/13 00:08:39;;;;;;;;;;;;;;;;;;2058195;28;46151;-63
2021/01/13 00:09:41;;;;;;;;;;;;;;;;;;2063235;28;44378;-64
2021/01/13 00:10:42;;;;;;;;;;;;;;;;;;2064184;28;44849;-64
2021/01/13 00:11:43;;;;;;;;;;;;;;;;;;2055554;28;42375;-64
2021/01/13 00:12:44;;;;;;;;;;;;;;;;;;2063843;28;44126;-64
2021/01/13 00:13:45;;;;;;;;;;;;;;;;;;2063277;28;44304;-64
2021/01/13 00:14:46;;;;;;;;;;;;;;;;;;2064335;28;44272;-64
2021/01/13 00:15:47;;;;;;;;;;;;;;;;;;2064085;28;43066;-65
2021/01/13 00:16:48;;;;;;;;;;;;;;;;;;2065012;28;45132;-65
2021/01/13 00:17:49;;;;;;;;;;;;;;;;;;2064357;28;43820;-65
2021/01/13 00:18:50;;;;;;;;;;;;;;;;;;2064608;28;45190;-65
2021/01/13 00:19:51;;;;;;;;;;;;;;;;;;2063265;28;45367;-65
2021/01/13 00:20:52;;;;;;;;;;;;;;;;;;2063715;28;44143;-65
2021/01/13 00:21:54;;;;;;;;;;;;;;;;;;2064158;28;44261;-66
2021/01/13 00:22:55;;;;;;;;;;;;;;;;;;2063813;28;44403;-65
2021/01/13 00:23:56;;;;;;;;;;;;;;;;;;2063218;28;45552;-65
2021/01/13 00:24:58;;;;;;;;;;;;;;;;;;2063652;28;44835;-65
2021/01/13 00:25:59;;;;;;;;;;;;;;;;;;2062919;28;42435;-65
2021/01/13 00:27:01;;;;;;;;;;;;;;;;;;2063921;28;44277;-65
2021/01/13 00:28:03;;;;;;;;;;;;;;;;;;2063620;28;44300;-65
2021/01/13 00:29:05;;;;;;;;;;;;;;;;;;2063555;28;43975;-64
2021/01/13 00:30:06;;;;;;;;;;;;;;;;;;2063678;28;45577;-65
2021/01/13 00:31:07;;;;;;;;;;;;;;;;;;2065347;28;45578;-65
2021/01/13 00:32:08;;;;;;;;;;;;;;;;;;2066788;28;45038;-65
2021/01/13 00:33:09;;;;;;;;;;;;;;;;;;2068471;28;44090;-65
2021/01/13 00:34:12;;;;;;;;;;;;;;;;;;2068137;28;45201;-65
2021/01/13 00:35:13;;;;;;;;;;;;;;;;;;2068447;28;44198;-66
2021/01/13 00:36:24;;;;;;;;;;;;;;;;;;2064764;28;45831;-65
2021/01/13 00:37:25;;;;;;;;;;;;;;;;;;2065296;28;45568;-65
2021/01/13 00:38:26;;;;;;;;;;;;;;;;;;2064491;28;44371;-64
2021/01/13 00:39:27;;;;;;;;;;;;;;;;;;2064603;28;45728;-65
2021/01/13 00:40:28;;;;;;;;;;;;;;;;;;2056939;28;45018;-66
2021/01/13 00:41:29;;;;;;;;;;;;;;;;;;2048207;28;44264;-65
2021/01/13 00:42:30;;;;;;;;;;;;;;;;;;2056706;28;45703;-66
2021/01/13 00:43:31;;;;;;;;;;;;;;;;;;2056937;28;46659;-66
2021/01/13 00:44:32;;;;;;;;;;;;;;;;;;2056621;28;44273;-66
2021/01/13 00:45:33;;;;;;;;;;;;;;;;;;2057468;28;43990;-66
2021/01/13 00:46:38;;;;;;;;;;;;;;;;;;2057171;28;45418;-66
2021/01/13 00:47:41;;;;;;;;;;;;;;;;;;2057066;28;43629;-66
2021/01/13 00:48:42;;;;;;;;;;;;;;;;;;2056271;28;42185;-66
2021/01/13 00:49:43;;;;;;;;;;;;;;;;;;2057180;28;43600;-67
2021/01/13 00:50:44;;;;;;;;;;;;;;;;;;2057324;28;44192;-66
2021/01/13 00:51:45;;;;;;;;;;;;;;;;;;2057562;28;42634;-65
2021/01/13 00:52:50;;;;;;;;;;;;;;;;;;2057381;28;44389;-65
2021/01/13 00:53:51;;;;;;;;;;;;;;;;;;2056306;28;45554;-65
2021/01/13 00:54:52;;;;;;;;;;;;;;;;;;2056477;28;46058;-67
2021/01/13 00:55:53;;;;;;;;;;;;;;;;;;2065692;28;44213;-66
2021/01/13 00:56:54;;;;;;;;;;;;;;;;;;2057233;28;46050;-65
2021/01/13 00:57:55;;;;;;;;;;;;;;;;;;2065160;28;44750;-66
2021/01/13 00:58:57;;;;;;;;;;;;;;;;;;2064662;28;46016;-65
2021/01/13 00:59:58;;;;;;;;;;;;;;;;;;2065292;28;44861;-65
2021/01/13 01:01:00;;;;;;;;;;;;;;;;;;2066255;28;44889;-66
2021/01/13 01:02:01;;;;;;;;;;;;;;;;;;2065826;28;46150;-65
2021/01/13 01:03:02;;;;;;;;;;;;;;;;;;2066123;28;44801;-65
2021/01/13 01:04:04;;;;;;;;;;;;;;;;;;2065192;28;44193;-66
2021/01/13 01:05:06;;;;;;;;;;;;;;;;;;2065163;28;45440;-65
2021/01/13 01:06:10;;;;;;;;;;;;;;;;;;2065810;28;44733;-65
2021/01/13 01:07:11;;;;;;;;;;;;;;;;;;2065671;28;44660;-66
2021/01/13 01:08:12;;;;;;;;;;;;;;;;;;2065836;28;44866;-67
2021/01/13 01:09:13;;;;;;;;;;;;;;;;;;2065388;28;46162;-66
2021/01/13 01:10:19;;;;;;;;;;;;;;;;;;2050840;28;44877;-65
2021/01/13 01:11:29;;;;;;;;;;;;;;;;;;2057077;28;44877;-66
2021/01/13 01:12:30;;;;;;;;;;;;;;;;;;2058197;28;44164;-65
2021/01/13 01:13:31;;;;;;;;;;;;;;;;;;2058013;28;46299;-65
2021/01/13 01:14:32;;;;;;;;;;;;;;;;;;2058008;28;44096;-65
2021/01/13 01:15:33;;;;;;;;;;;;;;;;;;2057180;28;46127;-65
2021/01/13 01:16:35;;;;;;;;;;;;;;;;;;2057739;28;44689;-65
2021/01/13 01:17:37;;;;;;;;;;;;;;;;;;2057599;28;43247;-66
2021/01/13 01:18:38;;;;;;;;;;;;;;;;;;2058074;28;44289;-65
2021/01/13 01:19:39;;;;;;;;;;;;;;;;;;2057418;28;45443;-66
2021/01/13 01:20:40;;;;;;;;;;;;;;;;;;2057190;28;44678;-63
2021/01/13 01:21:44;;;;;;;;;;;;;;;;;;2057160;28;44304;-63
2021/01/13 01:22:49;;;;;;;;;;;;;;;;;;2057675;28;43445;-65
2021/01/13 01:23:50;;;;;;;;;;;;;;;;;;2056790;28;45554;-64
2021/01/13 01:24:51;;;;;;;;;;;;;;;;;;2057768;28;44168;-65
2021/01/13 01:25:52;;;;;;;;;;;;;;;;;;2056902;28;44006;-64
2021/01/13 01:26:53;;;;;;;;;;;;;;;;;;2057114;28;42723;-64
2021/01/13 01:27:55;;;;;;;;;;;;;;;;;;2057882;28;45486;-64
2021/01/13 01:28:56;;;;;;;;;;;;;;;;;;2057393;28;43407;-64
2021/01/13 01:29:58;;;;;;;;;;;;;;;;;;2057142;28;45113;-64
2021/01/13 01:30:59;;;;;;;;;;;;;;;;;;2057382;28;45384;-64
2021/01/13 01:32:00;;;;;;;;;;;;;;;;;;2057362;28;45720;-65
2021/01/13 01:33:01;;;;;;;;;;;;;;;;;;2057472;28;45530;-64
2021/01/13 01:34:02;;;;;;;;;;;;;;;;;;2057223;28;44994;-64
2021/01/13 01:35:04;;;;;;;;;;;;;;;;;;2057633;28;44206;-64
2021/01/13 01:36:05;;;;;;;;;;;;;;;;;;2057940;28;44027;-64
2021/01/13 01:37:06;;;;;;;;;;;;;;;;;;2057388;28;44399;-65
2021/01/13 01:38:07;;;;;;;;;;;;;;;;;;2058305;28;45687;-64
2021/01/13 01:39:08;;;;;;;;;;;;;;;;;;2056722;28;45156;-65
2021/01/13 01:40:10;;;;;;;;;;;;;;;;;;2062309;28;45521;-64
2021/01/13 01:41:15;;;;;;;;;;;;;;;;;;2064109;28;45553;-64
2021/01/13 01:42:16;;;;;;;;;;;;;;;;;;2063986;28;44199;-64
2021/01/13 01:43:17;;;;;;;;;;;;;;;;;;2065115;28;44376;-64
2021/01/13 01:44:18;;;;;;;;;;;;;;;;;;2065505;28;45236;-64
2021/01/13 01:45:25;;;;;;;;;;;;;;;;;;2065672;28;44129;-64
2021/01/13 01:46:29;;;;;;;;;;;;;;;;;;2065326;28;44471;-65
2021/01/13 01:47:53;;;;;;;;;;;;;;;;;;2065495;28;44374;-65
2021/01/13 01:48:56;;;;;;;;;;;;;;;;;;2064684;28;45314;-65
2021/01/13 01:49:57;;;;;;;;;;;;;;;;;;2065556;28;44397;-65
2021/01/13 01:50:59;;;;;;;;;;;;;;;;;;2065899;28;44073;-65
2021/01/13 01:52:17;;;;;;;;;;;;;;;;;;2065549;28;45335;-65
2021/01/13 01:53:21;;;;;;;;;;;;;;;;;;2065301;28;44098;-65
2021/01/13 01:54:24;;;;;;;;;;;;;;;;;;2064849;28;43134;-65
2021/01/13 01:55:28;;;;;;;;;;;;;;;;;;2065202;28;44383;-66
2021/01/13 01:56:36;;;;;;;;;;;;;;;;;;2065195;28;43921;-64
2021/01/13 01:57:37;;;;;;;;;;;;;;;;;;2064842;28;45563;-65
2021/01/13 01:58:45;;;;;;;;;;;;;;;;;;2065276;28;45638;-64
2021/01/13 02:00:00;;;;;;;;;;;;;;;;;;2064521;28;44381;-64
2021/01/13 02:01:02;;;;;;;;;;;;;;;;;;2065524;28;44496;-64
2021/01/13 02:02:07;;;;;;;;;;;;;;;;;;2065267;28;45817;-64
2021/01/13 02:03:19;;;;;;;;;;;;;;;;;;2065664;28;46341;-64
2021/01/13 02:04:29;;;;;;;;;;;;;;;;;;2064906;28;45655;-64
2021/01/13 02:05:30;;;;;;;;;;;;;;;;;;2065353;28;44699;-65
2021/01/13 02:06:32;;;;;;;;;;;;;;;;;;2064805;28;44310;-65
2021/01/13 02:07:33;;;;;;;;;;;;;;;;;;2065121;28;44717;-65
2021/01/13 02:08:40;;;;;;;;;;;;;;;;;;2064171;28;43460;-64
2021/01/13 02:09:41;;;;;;;;;;;;;;;;;;2063843;28;45158;-65
2021/01/13 02:10:43;;;;;;;;;;;;;;;;;;2065191;28;44856;-65
2021/01/13 02:11:49;;;;;;;;;;;;;;;;;;2063783;28;44842;-65
2021/01/13 02:12:54;;;;;;;;;;;;;;;;;;2065591;28;44871;-65
2021/01/13 02:13:58;;;;;;;;;;;;;;;;;;2064302;28;45844;-66
2021/01/13 02:15:00;;;;;;;;;;;;;;;;;;2065677;28;46030;-65
2021/01/13 02:16:01;;;;;;;;;;;;;;;;;;2065559;28;46124;-65
2021/01/13 02:17:04;;;;;;;;;;;;;;;;;;2065153;28;44234;-65
2021/01/13 02:18:09;;;;;;;;;;;;;;;;;;2064601;28;45872;-65
2021/01/13 02:19:14;;;;;;;;;;;;;;;;;;2065260;28;45587;-65
2021/01/13 02:20:16;;;;;;;;;;;;;;;;;;2065072;28;45247;-65
2021/01/13 02:21:18;;;;;;;;;;;;;;;;;;2065216;28;44839;-64
2021/01/13 02:22:21;;;;;;;;;;;;;;;;;;2067278;28;46526;-64
2021/01/13 02:23:28;;;;;;;;;;;;;;;;;;2067343;28;44733;-64
2021/01/13 02:24:32;;;;;;;;;;;;;;;;;;2067904;28;44550;-64
2021/01/13 02:25:49;;;;;;;;;;;;;;;;;;2067282;28;45503;-64
2021/01/13 02:27:09;;;;;;;;;;;;;;;;;;2067381;28;44172;-64
2021/01/13 02:28:14;;;;;;;;;;;;;;;;;;2067338;28;45460;-65
2021/01/13 02:29:20;;;;;;;;;;;;;;;;;;2065463;28;45585;-65
2021/01/13 02:30:24;;;;;;;;;;;;;;;;;;2066030;28;44177;-65
2021/01/13 02:31:47;;;;;;;;;;;;;;;;;;2066576;28;44107;-66
2021/01/13 02:32:49;;;;;;;;;;;;;;;;;;2065867;28;45171;-65
2021/01/13 02:33:52;;;;;;;;;;;;;;;;;;2065621;28;45493;-65
2021/01/13 02:34:56;;;;;;;;;;;;;;;;;;2066515;28;43988;-65
2021/01/13 02:36:10;;;;;;;;;;;;;;;;;;2066781;28;46095;-65
2021/01/13 02:37:20;;;;;;;;;;;;;;;;;;2066602;28;44386;-65
2021/01/13 02:38:23;;;;;;;;;;;;;;;;;;2066597;28;43497;-65
2021/01/13 02:39:24;;;;;;;;;;;;;;;;;;2065665;28;42797;-65
2021/01/13 02:40:28;;;;;;;;;;;;;;;;;;2058180;28;45562;-65
2021/01/13 02:41:31;;;;;;;;;;;;;;;;;;2058094;28;46360;-64
2021/01/13 02:42:33;;;;;;;;;;;;;;;;;;2058413;28;44280;-64
2021/01/13 02:43:41;;;;;;;;;;;;;;;;;;2057854;28;44841;-64
2021/01/13 02:44:51;;;;;;;;;;;;;;;;;;2058585;28;44948;-64
2021/01/13 02:45:57;;;;;;;;;;;;;;;;;;2058058;28;44075;-64
2021/01/13 02:46:58;;;;;;;;;;;;;;;;;;2059432;28;43719;-64
2021/01/13 02:48:07;;;;;;;;;;;;;;;;;;2059298;28;46260;-64
2021/01/13 02:49:09;;;;;;;;;;;;;;;;;;2057667;28;44077;-64
2021/01/13 02:50:20;;;;;;;;;;;;;;;;;;2058799;28;45711;-64
2021/01/13 02:51:25;;;;;;;;;;;;;;;;;;2058710;28;45395;-64
2021/01/13 02:52:31;;;;;;;;;;;;;;;;;;2058903;28;44209;-64
2021/01/13 02:53:32;;;;;;;;;;;;;;;;;;2058070;28;45679;-64
2021/01/13 02:54:34;;;;;;;;;;;;;;;;;;2058072;28;44663;-64
2021/01/13 02:55:46;;;;;;;;;;;;;;;;;;2058537;28;47726;-64
2021/01/13 02:56:51;;;;;;;;;;;;;;;;;;2058474;28;44093;-65
2021/01/13 02:57:54;;;;;;;;;;;;;;;;;;2057852;28;44086;-64
2021/01/13 02:59:00;;;;;;;;;;;;;;;;;;2058067;28;44475;-64
2021/01/13 03:00:02;;;;;;;;;;;;;;;;;;2058006;28;44237;-64
2021/01/13 03:01:08;;;;;;;;;;;;;;;;;;2058402;28;44099;-64
2021/01/13 03:02:10;;;;;;;;;;;;;;;;;;2066180;28;44079;-64
2021/01/13 03:03:14;;;;;;;;;;;;;;;;;;2066454;28;44084;-64
2021/01/13 03:04:15;;;;;;;;;;;;;;;;;;2058326;28;45470;-64
2021/01/13 03:05:17;;;;;;;;;;;;;;;;;;2058867;28;43011;-65
2021/01/13 03:06:21;;;;;;;;;;;;;;;;;;2058671;28;45352;-64
2021/01/13 03:07:25;;;;;;;;;;;;;;;;;;2059212;28;45288;-64
2021/01/13 03:08:33;;;;;;;;;;;;;;;;;;2058578;28;42739;-64
2021/01/13 03:09:37;;;;;;;;;;;;;;;;;;2058542;28;44051;-64
2021/01/13 03:10:39;;;;;;;;;;;;;;;;;;2058041;28;44033;-64
2021/01/13 03:11:41;;;;;;;;;;;;;;;;;;2057960;28;45964;-64
2021/01/13 03:12:42;;;;;;;;;;;;;;;;;;2058967;28;42317;-64
2021/01/13 03:13:44;;;;;;;;;;;;;;;;;;2057936;28;44670;-64
2021/01/13 03:14:50;;;;;;;;;;;;;;;;;;2058198;28;46110;-64
2021/01/13 03:15:51;;;;;;;;;;;;;;;;;;2058995;28;46301;-64
2021/01/13 03:17:01;;;;;;;;;;;;;;;;;;2058524;28;44550;-64
2021/01/13 03:18:06;;;;;;;;;;;;;;;;;;2058907;28;46539;-64
2021/01/13 03:19:28;;;;;;;;;;;;;;;;;;2057691;28;44815;-64
2021/01/13 03:20:46;;;;;;;;;;;;;;;;;;2057777;28;44885;-64
2021/01/13 03:22:10;;;;;;;;;;;;;;;;;;2058084;28;43343;-64
2021/01/13 03:23:23;;;;;;;;;;;;;;;;;;2056812;28;43598;-64
2021/01/13 03:24:43;;;;;;;;;;;;;;;;;;2057231;28;45406;-63
2021/01/13 03:25:46;;;;;;;;;;;;;;;;;;2058459;28;46137;-64
2021/01/13 03:26:48;;;;;;;;;;;;;;;;;;2058918;28;43598;-64
2021/01/13 03:27:51;;;;;;;;;;;;;;;;;;2057712;28;44864;-64
2021/01/13 03:28:53;;;;;;;;;;;;;;;;;;2062504;28;46234;-64
2021/01/13 03:29:57;;;;;;;;;;;;;;;;;;2065688;28;44665;-64
2021/01/13 03:30:59;;;;;;;;;;;;;;;;;;2065944;28;43540;-64
2021/01/13 03:32:05;;;;;;;;;;;;;;;;;;2066675;28;44357;-64
2021/01/13 03:33:16;;;;;;;;;;;;;;;;;;2065554;28;45047;-64
2021/01/13 03:34:27;;;;;;;;;;;;;;;;;;2065370;28;45627;-64
2021/01/13 03:35:36;;;;;;;;;;;;;;;;;;2065826;28;46997;-64
2021/01/13 03:36:52;;;;;;;;;;;;;;;;;;2066130;28;44742;-64
2021/01/13 03:37:58;;;;;;;;;;;;;;;;;;2065706;28;43970;-64
2021/01/13 03:39:03;;;;;;;;;;;;;;;;;;2066251;28;45378;-64
2021/01/13 03:40:04;;;;;;;;;;;;;;;;;;2066314;28;45470;-64
2021/01/13 03:41:06;;;;;;;;;;;;;;;;;;2066107;28;44104;-66
2021/01/13 03:42:07;;;;;;;;;;;;;;;;;;2066006;28;44281;-64
2021/01/13 03:43:31;;;;;;;;;;;;;;;;;;2065928;28;44375;-64
2021/01/13 03:44:34;;;;;;;;;;;;;;;;;;2070656;28;45724;-64
2021/01/13 03:45:39;;;;;;;;;;;;;;;;;;2066583;28;45605;-63
2021/01/13 03:46:40;;;;;;;;;;;;;;;;;;2067069;28;44141;-64
2021/01/13 03:47:41;;;;;;;;;;;;;;;;;;2066351;28;45205;-63
2021/01/13 03:48:47;;;;;;;;;;;;;;;;;;2066168;28;44193;-64
2021/01/13 03:50:06;;;;;;;;;;;;;;;;;;2065876;28;45349;-63
2021/01/13 03:51:19;;;;;;;;;;;;;;;;;;2066570;28;45103;-64
2021/01/13 03:52:24;;;;;;;;;;;;;;;;;;2065432;28;41388;-64
2021/01/13 03:53:26;;;;;;;;;;;;;;;;;;2066474;28;45594;-64
2021/01/13 03:54:32;;;;;;;;;;;;;;;;;;2072362;28;44176;-64
2021/01/13 03:55:35;;;;;;;;;;;;;;;;;;2067260;28;42537;-64
2021/01/13 03:56:58;;;;;;;;;;;;;;;;;;2066368;28;45501;-64
2021/01/13 03:58:09;;;;;;;;;;;;;;;;;;2066176;28;43026;-64
2021/01/13 03:59:14;;;;;;;;;;;;;;;;;;2066354;28;43849;-64
2021/01/13 04:00:15;;;;;;;;;;;;;;;;;;2066089;28;45413;-64
2021/01/13 04:01:22;;;;;;;;;;;;;;;;;;2066279;28;44072;-63
2021/01/13 04:02:37;;;;;;;;;;;;;;;;;;2065939;28;43314;-64
2021/01/13 04:03:49;;;;;;;;;;;;;;;;;;2060227;28;45706;-64
2021/01/13 04:04:53;;;;;;;;;;;;;;;;;;2065943;28;43456;-64
2021/01/13 04:06:10;;;;;;;;;;;;;;;;;;2066134;28;43992;-65
2021/01/13 04:07:12;;;;;;;;;;;;;;;;;;2066624;28;45686;-64
2021/01/13 04:08:13;;;;;;;;;;;;;;;;;;2065985;28;45559;-64
2021/01/13 04:09:15;;;;;;;;;;;;;;;;;;2065238;28;41556;-65
2021/01/13 04:10:16;;;;;;;;;;;;;;;;;;2066084;28;44367;-64
2021/01/13 04:11:19;;;;;;;;;;;;;;;;;;2065882;28;45684;-64
2021/01/13 04:12:25;;;;;;;;;;;;;;;;;;2065902;28;44265;-64
2021/01/13 04:13:34;;;;;;;;;;;;;;;;;;2065313;28;45635;-64
2021/01/13 04:15:01;;;;;;;;;;;;;;;;;;2066569;28;45407;-64
2021/01/13 04:16:03;;;;;;;;;;;;;;;;;;2069919;28;44391;-63
2021/01/13 04:17:04;;;;;;;;;;;;;;;;;;2065833;28;44570;-65
2021/01/13 04:18:07;;;;;;;;;;;;;;;;;;2066022;28;45299;-65
2021/01/13 04:19:08;;;;;;;;;;;;;;;;;;2066289;28;44480;-64
2021/01/13 04:20:09;;;;;;;;;;;;;;;;;;2065972;28;44129;-64
2021/01/13 04:21:11;;;;;;;;;;;;;;;;;;2065387;28;45926;-64
2021/01/13 04:22:14;;;;;;;;;;;;;;;;;;2067339;28;42997;-64
2021/01/13 04:23:15;;;;;;;;;;;;;;;;;;2065748;28;45913;-64
2021/01/13 04:24:16;;;;;;;;;;;;;;;;;;2065335;28;44600;-63
2021/01/13 04:25:18;;;;;;;;;;;;;;;;;;2064966;28;46033;-63
2021/01/13 04:26:19;;;;;;;;;;;;;;;;;;2065219;28;46069;-63
2021/01/13 04:27:20;;;;;;;;;;;;;;;;;;2064900;28;46115;-63
2021/01/13 04:28:21;;;;;;;;;;;;;;;;;;2064855;28;44881;-64
2021/01/13 04:29:23;;;;;;;;;;;;;;;;;;2064311;28;44846;-64
2021/01/13 04:30:26;;;;;;;;;;;;;;;;;;2064826;28;44656;-64
2021/01/13 04:31:28;;;;;;;;;;;;;;;;;;2065348;28;45957;-64
2021/01/13 04:32:29;;;;;;;;;;;;;;;;;;2066284;28;44034;-64
2021/01/13 04:33:30;;;;;;;;;;;;;;;;;;2065476;28;45077;-64
2021/01/13 04:34:31;;;;;;;;;;;;;;;;;;2066106;28;44423;-64
2021/01/13 04:35:32;;;;;;;;;;;;;;;;;;2065266;28;46111;-64
2021/01/13 04:36:35;;;;;;;;;;;;;;;;;;2066002;28;46072;-64
2021/01/13 04:37:37;;;;;;;;;;;;;;;;;;2066276;28;46009;-64
2021/01/13 04:38:38;;;;;;;;;;;;;;;;;;2066170;28;46049;-64
2021/01/13 04:39:40;;;;;;;;;;;;;;;;;;2064802;28;48544;-63
2021/01/13 04:40:47;;;;;;;;;;;;;;;;;;2065596;28;43616;-63
2021/01/13 04:41:58;;;;;;;;;;;;;;;;;;2065011;28;46051;-64
2021/01/13 04:42:59;;;;;;;;;;;;;;;;;;2059696;28;44652;-64
2021/01/13 04:44:01;;;;;;;;;;;;;;;;;;2066708;28;44661;-64
2021/01/13 04:45:04;;;;;;;;;;;;;;;;;;2057730;28;44738;-64
2021/01/13 04:46:08;;;;;;;;;;;;;;;;;;2066078;28;45551;-64
2021/01/13 04:47:09;;;;;;;;;;;;;;;;;;2065544;28;45053;-64
2021/01/13 04:48:14;;;;;;;;;;;;;;;;;;2058173;28;45060;-64
2021/01/13 04:49:21;;;;;;;;;;;;;;;;;;2065186;28;44294;-64
2021/01/13 04:50:22;;;;;;;;;;;;;;;;;;2065564;28;43522;-64
2021/01/13 04:51:24;;;;;;;;;;;;;;;;;;2065723;28;45523;-66
2021/01/13 04:52:30;;;;;;;;;;;;;;;;;;2064266;28;44249;-64
2021/01/13 04:53:33;;;;;;;;;;;;;;;;;;2065293;28;45347;-64
2021/01/13 04:54:36;;;;;;;;;;;;;;;;;;2064699;28;45512;-64
2021/01/13 04:56:06;;;;;;;;;;;;;;;;;;2065993;28;45651;-63
2021/01/13 04:57:07;;;;;;;;;;;;;;;;;;2078042;28;44138;-64
2021/01/13 04:58:19;;;;;;;;;;;;;;;;;;2057125;28;44258;-64
2021/01/13 04:59:24;;;;;;;;;;;;;;;;;;2065190;28;43188;-64
2021/01/13 05:00:43;;;;;;;;;;;;;;;;;;2066546;28;43037;-64
2021/01/13 05:01:53;;;;;;;;;;;;;;;;;;2066324;28;45083;-64
2021/01/13 05:03:27;;;;;;;;;;;;;;;;;;2066205;28;44468;-64
2021/01/13 05:04:41;;;;;;;;;;;;;;;;;;2066707;28;45546;-64
2021/01/13 05:06:02;;;;;;;;;;;;;;;;;;2066561;28;43573;-65
2021/01/13 05:07:06;;;;;;;;;;;;;;;;;;2066789;28;44158;-65
2021/01/13 05:08:10;;;;;;;;;;;;;;;;;;2065557;28;45603;-64
2021/01/13 05:09:11;;;;;;;;;;;;;;;;;;2065132;28;45518;-65
2021/01/13 05:10:14;;;;;;;;;;;;;;;;;;2065450;28;45830;-65
2021/01/13 05:11:17;;;;;;;;;;;;;;;;;;2062249;28;44259;-66
2021/01/13 05:12:25;;;;;;;;;;;;;;;;;;2063495;28;45616;-65
2021/01/13 05:13:32;;;;;;;;;;;;;;;;;;2064997;28;45656;-65
2021/01/13 05:14:41;;;;;;;;;;;;;;;;;;2065823;28;44378;-65
2021/01/13 05:15:54;;;;;;;;;;;;;;;;;;2065321;28;43993;-65
2021/01/13 05:17:02;;;;;;;;;;;;;;;;;;2066162;28;44157;-65
2021/01/13 05:18:11;;;;;;;;;;;;;;;;;;2064157;28;44141;-65
2021/01/13 05:19:20;;;;;;;;;;;;;;;;;;2064955;28;44473;-65
2021/01/13 05:20:40;;;;;;;;;;;;;;;;;;2065588;28;45362;-64
2021/01/13 05:21:43;;;;;;;;;;;;;;;;;;2065258;28;45677;-64
2021/01/13 05:22:44;;;;;;;;;;;;;;;;;;2066122;28;45604;-64
2021/01/13 05:23:48;;;;;;;;;;;;;;;;;;2066076;28;44398;-64
2021/01/13 05:24:52;;;;;;;;;;;;;;;;;;2066248;28;44085;-63
2021/01/13 05:25:53;;;;;;;;;;;;;;;;;;2063849;28;42417;-64
2021/01/13 05:26:58;;;;;;;;;;;;;;;;;;2064712;28;45433;-63
2021/01/13 05:28:04;;;;;;;;;;;;;;;;;;2065881;28;44278;-63
2021/01/13 05:29:24;;;;;;;;;;;;;;;;;;2065562;28;45179;-63
2021/01/13 05:30:30;;;;;;;;;;;;;;;;;;2065543;28;44281;-63
2021/01/13 05:31:32;;;;;;;;;;;;;;;;;;2066024;28;44486;-63
2021/01/13 05:32:33;;;;;;;;;;;;;;;;;;2065292;28;43911;-63
2021/01/13 05:33:35;;;;;;;;;;;;;;;;;;2065727;28;44392;-63
2021/01/13 05:34:36;;;;;;;;;;;;;;;;;;2064479;28;45517;-62
2021/01/13 05:35:39;;;;;;;;;;;;;;;;;;2065200;28;44633;-63
2021/01/13 05:36:44;;;;;;;;;;;;;;;;;;2065361;28;44255;-62
2021/01/13 05:37:45;;;;;;;;;;;;;;;;;;2065398;28;45812;-63
2021/01/13 05:39:03;;;;;;;;;;;;;;;;;;2065156;28;46979;-63
2021/01/13 05:40:05;;;;;;;;;;;;;;;;;;2064575;28;44828;-64
2021/01/13 05:41:10;;;;;;;;;;;;;;;;;;2065506;28;44675;-63
2021/01/13 05:42:14;;;;;;;;;;;;;;;;;;2066111;28;46177;-63
2021/01/13 05:43:16;;;;;;;;;;;;;;;;;;2066800;28;46192;-63
2021/01/13 05:44:21;;;;;;;;;;;;;;;;;;2065815;28;44969;-63
2021/01/13 05:45:24;;;;;;;;;;;;;;;;;;2065996;28;48286;-64
2021/01/13 05:46:33;;;;;;;;;;;;;;;;;;2066132;28;45064;-63
2021/01/13 05:47:53;;;;;;;;;;;;;;;;;;2066717;28;44973;-63
2021/01/13 05:48:54;;;;;;;;;;;;;;;;;;2066481;28;43343;-64
2021/01/13 05:49:57;;;;;;;;;;;;;;;;;;2067399;28;44863;-63
2021/01/13 05:50:58;;;;;;;;;;;;;;;;;;2066995;28;44358;-64
2021/01/13 05:52:07;;;;;;;;;;;;;;;;;;2066514;28;44766;-64
2021/01/13 05:53:08;;;;;;;;;;;;;;;;;;2066388;28;44828;-64
2021/01/13 05:54:13;;;;;;;;;;;;;;;;;;2066588;28;44754;-64
2021/01/13 05:55:15;;;;;;;;;;;;;;;;;;2066573;28;46068;-64
2021/01/13 05:56:17;;;;;;;;;;;;;;;;;;2068182;28;44945;-64
2021/01/13 05:57:20;;;;;;;;;;;;;;;;;;2067347;28;42374;-64
2021/01/13 05:58:22;;;;;;;;;;;;;;;;;;2066687;28;45430;-64
2021/01/13 05:59:27;;;;;;;;;;;;;;;;;;2066245;28;46107;-63
2021/01/13 06:00:29;;;;;;;;;;;;;;;;;;2067585;28;44150;-64
2021/01/13 06:01:30;;;;;;;;;;;;;;;;;;2067425;28;45349;-63
2021/01/13 06:02:34;;;;;;;;;;;;;;;;;;2066014;28;45126;-65
2021/01/13 06:03:35;;;;;;;;;;;;;;;;;;2065854;28;44126;-64
2021/01/13 06:04:36;;;;;;;;;;;;;;;;;;2065723;28;42841;-64
2021/01/13 06:05:47;;;;;;;;;;;;;;;;;;2065647;28;45312;-64
2021/01/13 06:06:55;;;;;;;;;;;;;;;;;;2066651;28;44242;-63
2021/01/13 06:07:57;;;;;;;;;;;;;;;;;;2066387;28;45864;-64
2021/01/13 06:09:00;;;;;;;;;;;;;;;;;;2066232;28;43989;-64
2021/01/13 06:10:17;;;;;;;;;;;;;;;;;;2062506;28;44243;-64
2021/01/13 06:11:18;;;;;;;;;;;;;;;;;;2061040;28;44260;-64
2021/01/13 06:12:20;;;;;;;;;;;;;;;;;;2060797;28;47442;-65
2021/01/13 06:13:26;;;;;;;;;;;;;;;;;;2059658;28;44237;-65
2021/01/13 06:14:27;;;;;;;;;;;;;;;;;;2059133;28;44268;-64
2021/01/13 06:15:28;;;;;;;;;;;;;;;;;;2059627;28;45551;-64
2021/01/13 06:16:30;;;;;;;;;;;;;;;;;;2059203;28;45064;-64
2021/01/13 06:17:31;;;;;;;;;;;;;;;;;;2059027;28;43840;-64
2021/01/13 06:18:33;;;;;;;;;;;;;;;;;;2065503;28;45028;-64
2021/01/13 06:19:34;;;;;;;;;;;;;;;;;;2066381;28;44124;-64
2021/01/13 06:20:35;;;;;;;;;;;;;;;;;;2066646;28;45675;-64
2021/01/13 06:21:37;;;;;;;;;;;;;;;;;;2067217;28;44129;-64
2021/01/13 06:22:41;;;;;;;;;;;;;;;;;;2067272;28;44167;-64
2021/01/13 06:23:49;;;;;;;;;;;;;;;;;;2067586;28;44941;-65
2021/01/13 06:24:50;;;;;;;;;;;;;;;;;;2067322;28;44373;-64
2021/01/13 06:25:55;;;;;;;;;;;;;;;;;;2066663;28;43644;-64
2021/01/13 06:27:02;;;;;;;;;;;;;;;;;;2067148;28;44124;-64
2021/01/13 06:28:03;;;;;;;;;;;;;;;;;;2066237;28;44237;-63
2021/01/13 06:29:13;;;;;;;;;;;;;;;;;;2065693;28;44256;-64
2021/01/13 06:30:18;;;;;;;;;;;;;;;;;;2066986;28;45425;-64
2021/01/13 06:31:24;;;;;;;;;;;;;;;;;;2066956;28;44100;-63
2021/01/13 06:32:48;;;;;;;;;;;;;;;;;;2066170;28;44109;-65
2021/01/13 06:34:07;;;;;;;;;;;;;;;;;;2065767;28;44382;-65
2021/01/13 06:35:37;;;;;;;;;;;;;;;;;;2065924;28;44114;-65
2021/01/13 06:36:49;;;;;;;;;;;;;;;;;;2066244;28;44212;-66
2021/01/13 06:37:51;;;;;;;;;;;;;;;;;;2067166;28;45419;-65
2021/01/13 06:39:02;;;;;;;;;;;;;;;;;;2066711;28;44860;-65
2021/01/13 06:40:11;;;;;;;;;;;;;;;;;;2066816;28;45589;-65
2021/01/13 06:41:12;;;;;;;;;;;;;;;;;;2066909;28;45305;-65
2021/01/13 06:42:14;;;;;;;;;;;;;;;;;;2067178;28;45434;-65
2021/01/13 06:43:15;;;;;;;;;;;;;;;;;;2066826;28;46292;-65
2021/01/13 06:44:19;;;;;;;;;;;;;;;;;;2067037;28;44831;-65
2021/01/13 06:45:32;;;;;;;;;;;;;;;;;;2065644;28;46150;-65
2021/01/13 06:46:34;;;;;;;;;;;;;;;;;;2065588;28;44543;-65
2021/01/13 06:47:35;;;;;;;;;;;;;;;;;;2065885;28;42460;-65
2021/01/13 06:48:36;;;;;;;;;;;;;;;;;;2065794;28;45570;-64
2021/01/13 06:49:38;;;;;;;;;;;;;;;;;;2065269;28;44861;-65
2021/01/13 06:50:40;;;;;;;;;;;;;;;;;;2061805;28;44722;-66
2021/01/13 06:51:42;;;;;;;;;;;;;;;;;;2065691;28;44711;-65
2021/01/13 06:52:44;;;;;;;;;;;;;;;;;;2066411;28;46108;-65
2021/01/13 06:53:46;;;;;;;;;;;;;;;;;;2073287;28;43613;-65
2021/01/13 06:54:48;;;;;;;;;;;;;;;;;;2106565;28;44640;-64
2021/01/13 06:55:51;;;;;;;;;;;;;;;;;;2106244;28;46133;-64
2021/01/13 06:56:56;;;;;;;;;;;;;;;;;;2106503;28;43761;-65
2021/01/13 06:58:18;;;;;;;;;;;;;;;;;;2105387;28;45604;-62
2021/01/13 06:59:20;;;;;;;;;;;;;;;;;;2105238;28;44913;-63
2021/01/13 07:00:21;;;;;;;;;;;;;;;;;;2106148;28;45841;-63
2021/01/13 07:01:38;;;;;;;;;;;;;;;;;;2106486;28;44897;-64
2021/01/13 07:02:54;;;;;;;;;;;;;;;;;;2106223;28;46031;-64
2021/01/13 07:04:09;;;;;;;;;;;;;;;;;;2105970;28;44257;-63
2021/01/13 07:05:31;;;;;;;;;;;;;;;;;;2065609;28;44522;-64
2021/01/13 07:06:32;;;;;;;;;;;;;;;;;;2064123;28;44690;-64
2021/01/13 07:07:40;;;;;;;;;;;;;;;;;;2064316;28;44109;-64
2021/01/13 07:08:41;;;;;;;;;;;;;;;;;;2062851;28;44234;-64
2021/01/13 07:09:43;;;;;;;;;;;;;;;;;;2063164;28;46108;-64
2021/01/13 07:10:44;;;;;;;;;;;;;;;;;;2063880;28;44249;-63
2021/01/13 07:11:47;;;;;;;;;;;;;;;;;;2063320;28;45752;-62
2021/01/13 07:12:51;;;;;;;;;;;;;;;;;;2063647;28;45560;-63
2021/01/13 07:14:00;;;;;;;;;;;;;;;;;;2063012;28;44346;-63
2021/01/13 07:15:05;;;;;;;;;;;;;;;;;;2064178;28;44309;-63
2021/01/13 07:16:07;;;;;;;;;;;;;;;;;;2064090;28;45611;-63
2021/01/13 07:17:09;;;;;;;;;;;;;;;;;;2064437;28;44193;-63
2021/01/13 07:18:11;;;;;;;;;;;;;;;;;;2064030;28;44253;-62
2021/01/13 07:19:15;;;;;;;;;;;;;;;;;;2063487;28;46311;-64
2021/01/13 07:20:16;;;;;;;;;;;;;;;;;;2063325;28;43821;-63
2021/01/13 07:21:39;;;;;;;;;;;;;;;;;;2064300;28;44004;-63
2021/01/13 07:22:41;;;;;;;;;;;;;;;;;;2064040;28;45539;-62